sim
Sign-in with your pilot id or email,
or register
Callsign
Passwort

Schedule Details

Flight Number: DLH360 (2)
Departure: Frankfurt Airport (EDDF) at 20:20
Arrival: Bremen Airport (EDDW) at 21:15
Route: Lufthansa Passenger Schedule. Enter filed route here before submitting Pirep.

Weather Information
Getting current METAR information for EDDF 111950Z 03006KT 350V050 CAVOK 17/06 Q1024 NOSIG
Getting current METAR information for EDDW 111950Z VRB01KT 9999 FEW024TCU 14/12 Q1025 NOSIG

Schedule Frequency

Route Map